Midland, Texas
Current Conditions -  °F | °C
As of 12:15 PM on Monday 22 Dec 2014 (Local Time) from KMDD Reporting Station
Clear Clear  
Wind Chill: 19°   Ceiling: Unl
Heat Index: 19°   Visibility: 10mi
Dew Point:   Wind: 10mph
Humidity: 28%   Direction: 10°N
Pressure: 29.75"   Gusts: 24mph
Location:  32°N, 102.07°W
Report Text: KMDD 221815Z AUTO 01009G21KT 10SM CLR 19/00 A2975 RMK AO2 T01920002
Loading
Personal Weather Stations






























Interactive Weather Map New forecast layout! Learn more

10-Day Weather Forecast

Advertisements
Track Severe Weather on mobile